sensor_id;sensor_type;location;lat;lon;timestamp;temperature;humidity
18392;DHT22;9322;50.932;5.318;2024-02-21T00:02:12;9.70;1.40
18392;DHT22;9322;50.932;5.318;2024-02-21T00:04:38;9.70;1.40
18392;DHT22;9322;50.932;5.318;2024-02-21T00:07:04;9.70;1.40
18392;DHT22;9322;50.932;5.318;2024-02-21T00:09:30;9.70;1.40
18392;DHT22;9322;50.932;5.318;2024-02-21T00:11:56;9.70;1.40
18392;DHT22;9322;50.932;5.318;2024-02-21T00:14:22;9.70;1.40
18392;DHT22;9322;50.932;5.318;2024-02-21T00:16:48;9.70;1.40
18392;DHT22;9322;50.932;5.318;2024-02-21T00:19:14;9.70;1.40
18392;DHT22;9322;50.932;5.318;2024-02-21T00:21:40;9.70;1.40
18392;DHT22;9322;50.932;5.318;2024-02-21T00:24:06;9.80;1.40
18392;DHT22;9322;50.932;5.318;2024-02-21T00:26:32;9.70;1.40
18392;DHT22;9322;50.932;5.318;2024-02-21T00:28:58;9.70;1.40
18392;DHT22;9322;50.932;5.318;2024-02-21T00:31:23;9.70;1.40
18392;DHT22;9322;50.932;5.318;2024-02-21T00:33:49;9.60;1.40
18392;DHT22;9322;50.932;5.318;2024-02-21T00:36:16;9.60;1.40
18392;DHT22;9322;50.932;5.318;2024-02-21T00:38:42;9.80;1.40
18392;DHT22;9322;50.932;5.318;2024-02-21T00:41:07;9.60;1.40
18392;DHT22;9322;50.932;5.318;2024-02-21T00:43:33;9.70;1.40
18392;DHT22;9322;50.932;5.318;2024-02-21T00:45:59;9.60;1.40
18392;DHT22;9322;50.932;5.318;2024-02-21T00:48:25;9.40;1.40
18392;DHT22;9322;50.932;5.318;2024-02-21T00:50:50;9.40;1.40
18392;DHT22;9322;50.932;5.318;2024-02-21T00:53:17;9.50;1.40
18392;DHT22;9322;50.932;5.318;2024-02-21T00:55:43;9.60;1.40
18392;DHT22;9322;50.932;5.318;2024-02-21T00:58:09;9.50;1.40
18392;DHT22;9322;50.932;5.318;2024-02-21T01:00:35;9.50;1.40
18392;DHT22;9322;50.932;5.318;2024-02-21T01:03:00;9.60;1.40
18392;DHT22;9322;50.932;5.318;2024-02-21T01:05:26;9.50;1.40
18392;DHT22;9322;50.932;5.318;2024-02-21T01:07:54;9.60;1.40
18392;DHT22;9322;50.932;5.318;2024-02-21T01:10:20;9.60;1.40
18392;DHT22;9322;50.932;5.318;2024-02-21T01:12:46;9.70;1.40
18392;DHT22;9322;50.932;5.318;2024-02-21T01:15:12;9.70;1.40
18392;DHT22;9322;50.932;5.318;2024-02-21T01:17:38;9.60;1.40
18392;DHT22;9322;50.932;5.318;2024-02-21T01:20:06;9.60;1.40
18392;DHT22;9322;50.932;5.318;2024-02-21T01:22:33;9.60;1.40
18392;DHT22;9322;50.932;5.318;2024-02-21T01:24:58;9.60;1.40
18392;DHT22;9322;50.932;5.318;2024-02-21T01:27:24;9.60;1.40
18392;DHT22;9322;50.932;5.318;2024-02-21T01:29:50;9.60;1.40
18392;DHT22;9322;50.932;5.318;2024-02-21T01:32:16;9.70;1.40
18392;DHT22;9322;50.932;5.318;2024-02-21T01:34:42;9.70;1.40
18392;DHT22;9322;50.932;5.318;2024-02-21T01:37:08;9.70;1.40
18392;DHT22;9322;50.932;5.318;2024-02-21T01:39:35;9.60;1.40
18392;DHT22;9322;50.932;5.318;2024-02-21T01:42:00;9.50;1.40
18392;DHT22;9322;50.932;5.318;2024-02-21T01:44:26;9.50;1.40
18392;DHT22;9322;50.932;5.318;2024-02-21T01:46:53;9.60;1.40
18392;DHT22;9322;50.932;5.318;2024-02-21T01:49:19;9.50;1.40
18392;DHT22;9322;50.932;5.318;2024-02-21T01:51:46;9.50;1.40
18392;DHT22;9322;50.932;5.318;2024-02-21T01:54:14;9.50;1.40
18392;DHT22;9322;50.932;5.318;2024-02-21T01:56:42;9.50;1.40
18392;DHT22;9322;50.932;5.318;2024-02-21T01:59:08;9.60;1.40
18392;DHT22;9322;50.932;5.318;2024-02-21T02:01:34;9.60;1.40
18392;DHT22;9322;50.932;5.318;2024-02-21T02:04:00;9.50;1.40
18392;DHT22;9322;50.932;5.318;2024-02-21T02:06:26;9.50;1.40
18392;DHT22;9322;50.932;5.318;2024-02-21T02:08:53;9.60;1.40
18392;DHT22;9322;50.932;5.318;2024-02-21T02:11:20;9.60;1.40
18392;DHT22;9322;50.932;5.318;2024-02-21T02:13:45;9.60;1.40
18392;DHT22;9322;50.932;5.318;2024-02-21T02:16:11;9.70;1.40
18392;DHT22;9322;50.932;5.318;2024-02-21T02:18:37;9.70;1.40
18392;DHT22;9322;50.932;5.318;2024-02-21T02:21:13;9.70;1.40
18392;DHT22;9322;50.932;5.318;2024-02-21T02:23:40;9.60;1.40
18392;DHT22;9322;50.932;5.318;2024-02-21T02:26:06;9.70;1.40
18392;DHT22;9322;50.932;5.318;2024-02-21T02:28:32;9.60;1.40
18392;DHT22;9322;50.932;5.318;2024-02-21T02:30:58;9.60;1.40
18392;DHT22;9322;50.932;5.318;2024-02-21T02:33:24;9.60;1.40
18392;DHT22;9322;50.932;5.318;2024-02-21T02:35:50;9.60;1.40
18392;DHT22;9322;50.932;5.318;2024-02-21T02:38:16;9.60;1.40
18392;DHT22;9322;50.932;5.318;2024-02-21T02:40:42;9.50;1.40
18392;DHT22;9322;50.932;5.318;2024-02-21T02:43:08;9.50;1.40
18392;DHT22;9322;50.932;5.318;2024-02-21T02:45:34;9.60;1.40
18392;DHT22;9322;50.932;5.318;2024-02-21T02:48:00;9.60;1.40
18392;DHT22;9322;50.932;5.318;2024-02-21T02:50:26;9.50;1.40
18392;DHT22;9322;50.932;5.318;2024-02-21T02:52:53;9.50;1.40
18392;DHT22;9322;50.932;5.318;2024-02-21T02:55:20;9.40;1.40
18392;DHT22;9322;50.932;5.318;2024-02-21T02:57:46;9.30;1.40
18392;DHT22;9322;50.932;5.318;2024-02-21T03:00:13;9.50;1.40
18392;DHT22;9322;50.932;5.318;2024-02-21T03:02:40;9.50;1.40
18392;DHT22;9322;50.932;5.318;2024-02-21T03:05:16;9.40;1.40
18392;DHT22;9322;50.932;5.318;2024-02-21T03:07:43;9.30;1.40
18392;DHT22;9322;50.932;5.318;2024-02-21T03:10:10;9.30;1.40
18392;DHT22;9322;50.932;5.318;2024-02-21T03:12:36;9.30;1.40
18392;DHT22;9322;50.932;5.318;2024-02-21T03:15:03;9.30;1.40
18392;DHT22;9322;50.932;5.318;2024-02-21T03:17:29;9.20;1.40
18392;DHT22;9322;50.932;5.318;2024-02-21T03:19:55;9.30;1.40
18392;DHT22;9322;50.932;5.318;2024-02-21T03:22:21;9.10;1.40
18392;DHT22;9322;50.932;5.318;2024-02-21T03:24:47;9.20;1.40
18392;DHT22;9322;50.932;5.318;2024-02-21T03:27:13;9.20;1.40
18392;DHT22;9322;50.932;5.318;2024-02-21T03:29:39;9.30;1.40
18392;DHT22;9322;50.932;5.318;2024-02-21T03:32:05;9.30;1.40
18392;DHT22;9322;50.932;5.318;2024-02-21T03:34:31;9.30;1.40
18392;DHT22;9322;50.932;5.318;2024-02-21T03:36:56;9.30;1.40
18392;DHT22;9322;50.932;5.318;2024-02-21T03:39:22;9.30;1.40
18392;DHT22;9322;50.932;5.318;2024-02-21T03:41:48;9.20;1.40
18392;DHT22;9322;50.932;5.318;2024-02-21T03:44:14;9.10;1.40
18392;DHT22;9322;50.932;5.318;2024-02-21T03:46:40;9.20;1.40
18392;DHT22;9322;50.932;5.318;2024-02-21T03:49:06;9.20;1.40
18392;DHT22;9322;50.932;5.318;2024-02-21T03:51:32;9.20;1.40
18392;DHT22;9322;50.932;5.318;2024-02-21T03:53:58;8.90;1.40
18392;DHT22;9322;50.932;5.318;2024-02-21T03:56:24;9.00;1.40
18392;DHT22;9322;50.932;5.318;2024-02-21T03:58:50;9.00;1.40
18392;DHT22;9322;50.932;5.318;2024-02-21T04:01:16;9.10;1.40
18392;DHT22;9322;50.932;5.318;2024-02-21T04:03:43;9.10;1.40
18392;DHT22;9322;50.932;5.318;2024-02-21T04:06:09;9.10;1.40
18392;DHT22;9322;50.932;5.318;2024-02-21T04:08:35;9.10;1.40
18392;DHT22;9322;50.932;5.318;2024-02-21T04:11:01;9.00;1.40
18392;DHT22;9322;50.932;5.318;2024-02-21T04:13:27;9.00;1.40
18392;DHT22;9322;50.932;5.318;2024-02-21T04:15:53;9.10;1.40
18392;DHT22;9322;50.932;5.318;2024-02-21T04:18:19;9.10;1.40
18392;DHT22;9322;50.932;5.318;2024-02-21T04:20:45;9.00;1.40
18392;DHT22;9322;50.932;5.318;2024-02-21T04:23:11;9.00;1.40
18392;DHT22;9322;50.932;5.318;2024-02-21T04:25:37;9.00;1.40
18392;DHT22;9322;50.932;5.318;2024-02-21T04:28:03;9.00;1.40
18392;DHT22;9322;50.932;5.318;2024-02-21T04:30:29;9.00;1.40
18392;DHT22;9322;50.932;5.318;2024-02-21T04:32:54;9.00;1.40
18392;DHT22;9322;50.932;5.318;2024-02-21T04:35:20;9.10;1.40
18392;DHT22;9322;50.932;5.318;2024-02-21T04:37:46;9.10;1.40
18392;DHT22;9322;50.932;5.318;2024-02-21T04:40:12;9.10;1.40
18392;DHT22;9322;50.932;5.318;2024-02-21T04:42:39;9.00;1.40
18392;DHT22;9322;50.932;5.318;2024-02-21T04:45:06;9.20;1.40
18392;DHT22;9322;50.932;5.318;2024-02-21T04:47:31;9.10;1.40
18392;DHT22;9322;50.932;5.318;2024-02-21T04:49:57;9.10;1.40
18392;DHT22;9322;50.932;5.318;2024-02-21T04:52:23;9.00;1.40
18392;DHT22;9322;50.932;5.318;2024-02-21T04:54:49;9.00;1.40
18392;DHT22;9322;50.932;5.318;2024-02-21T04:57:15;8.90;1.40
18392;DHT22;9322;50.932;5.318;2024-02-21T04:59:45;8.90;1.40
18392;DHT22;9322;50.932;5.318;2024-02-21T05:02:13;8.90;1.40
18392;DHT22;9322;50.932;5.318;2024-02-21T05:04:39;9.00;1.40
18392;DHT22;9322;50.932;5.318;2024-02-21T05:07:07;9.00;1.40
18392;DHT22;9322;50.932;5.318;2024-02-21T05:09:33;8.90;1.40
18392;DHT22;9322;50.932;5.318;2024-02-21T05:11:59;8.90;1.40
18392;DHT22;9322;50.932;5.318;2024-02-21T05:14:25;8.80;1.40
18392;DHT22;9322;50.932;5.318;2024-02-21T05:16:52;8.80;1.40
18392;DHT22;9322;50.932;5.318;2024-02-21T05:19:18;8.70;1.40
18392;DHT22;9322;50.932;5.318;2024-02-21T05:21:44;8.70;1.40
18392;DHT22;9322;50.932;5.318;2024-02-21T05:24:10;8.70;1.40
18392;DHT22;9322;50.932;5.318;2024-02-21T05:26:36;8.80;1.40
18392;DHT22;9322;50.932;5.318;2024-02-21T05:29:02;8.90;1.40
18392;DHT22;9322;50.932;5.318;2024-02-21T05:34:18;8.80;1.40
18392;DHT22;9322;50.932;5.318;2024-02-21T05:36:44;8.90;1.40
18392;DHT22;9322;50.932;5.318;2024-02-21T05:39:10;8.80;1.40
18392;DHT22;9322;50.932;5.318;2024-02-21T05:41:36;8.80;1.40
18392;DHT22;9322;50.932;5.318;2024-02-21T05:44:02;8.90;1.40
18392;DHT22;9322;50.932;5.318;2024-02-21T05:46:28;9.00;1.40
18392;DHT22;9322;50.932;5.318;2024-02-21T05:48:54;9.00;1.40
18392;DHT22;9322;50.932;5.318;2024-02-21T05:51:20;9.00;1.40
18392;DHT22;9322;50.932;5.318;2024-02-21T05:53:46;8.90;1.40
18392;DHT22;9322;50.932;5.318;2024-02-21T05:56:12;8.70;1.40
18392;DHT22;9322;50.932;5.318;2024-02-21T05:58:39;8.70;1.40
18392;DHT22;9322;50.932;5.318;2024-02-21T06:01:05;8.60;1.40
18392;DHT22;9322;50.932;5.318;2024-02-21T06:03:33;8.70;1.40
18392;DHT22;9322;50.932;5.318;2024-02-21T06:06:00;8.70;1.40
18392;DHT22;9322;50.932;5.318;2024-02-21T06:08:26;8.80;1.40
18392;DHT22;9322;50.932;5.318;2024-02-21T06:10:52;8.70;1.40
18392;DHT22;9322;50.932;5.318;2024-02-21T06:13:23;8.60;1.40
18392;DHT22;9322;50.932;5.318;2024-02-21T06:15:50;8.60;1.40
18392;DHT22;9322;50.932;5.318;2024-02-21T06:18:17;8.60;1.40
18392;DHT22;9322;50.932;5.318;2024-02-21T06:20:44;8.70;1.40
18392;DHT22;9322;50.932;5.318;2024-02-21T06:23:11;8.60;1.40
18392;DHT22;9322;50.932;5.318;2024-02-21T06:25:36;8.60;1.40
18392;DHT22;9322;50.932;5.318;2024-02-21T06:28:02;8.60;1.40
18392;DHT22;9322;50.932;5.318;2024-02-21T06:30:28;8.50;1.40
18392;DHT22;9322;50.932;5.318;2024-02-21T06:32:54;8.40;1.40
18392;DHT22;9322;50.932;5.318;2024-02-21T06:35:24;8.30;1.40
18392;DHT22;9322;50.932;5.318;2024-02-21T06:37:51;8.30;1.40
18392;DHT22;9322;50.932;5.318;2024-02-21T06:40:26;8.40;1.40
18392;DHT22;9322;50.932;5.318;2024-02-21T06:42:52;8.40;1.40
18392;DHT22;9322;50.932;5.318;2024-02-21T06:45:17;8.40;1.40
18392;DHT22;9322;50.932;5.318;2024-02-21T06:47:43;8.30;1.40
18392;DHT22;9322;50.932;5.318;2024-02-21T06:50:09;8.20;1.40
18392;DHT22;9322;50.932;5.318;2024-02-21T06:52:36;8.10;1.40
18392;DHT22;9322;50.932;5.318;2024-02-21T06:55:02;8.00;1.40
18392;DHT22;9322;50.932;5.318;2024-02-21T06:57:30;8.00;1.40
18392;DHT22;9322;50.932;5.318;2024-02-21T06:59:56;7.90;1.40
18392;DHT22;9322;50.932;5.318;2024-02-21T07:02:22;7.90;1.40
18392;DHT22;9322;50.932;5.318;2024-02-21T07:04:48;7.90;1.40
18392;DHT22;9322;50.932;5.318;2024-02-21T07:07:14;7.90;1.40
18392;DHT22;9322;50.932;5.318;2024-02-21T07:09:40;8.00;1.40
18392;DHT22;9322;50.932;5.318;2024-02-21T07:12:06;8.00;1.40
18392;DHT22;9322;50.932;5.318;2024-02-21T07:14:36;8.00;1.40
18392;DHT22;9322;50.932;5.318;2024-02-21T07:17:02;8.00;1.40
18392;DHT22;9322;50.932;5.318;2024-02-21T07:19:27;7.90;1.40
18392;DHT22;9322;50.932;5.318;2024-02-21T07:21:53;7.80;1.40
18392;DHT22;9322;50.932;5.318;2024-02-21T07:24:19;7.80;1.40
18392;DHT22;9322;50.932;5.318;2024-02-21T07:26:45;7.70;1.40
18392;DHT22;9322;50.932;5.318;2024-02-21T07:29:11;7.90;1.40
18392;DHT22;9322;50.932;5.318;2024-02-21T07:31:44;7.90;1.40
18392;DHT22;9322;50.932;5.318;2024-02-21T07:34:10;7.90;1.40
18392;DHT22;9322;50.932;5.318;2024-02-21T07:36:36;7.80;1.40
18392;DHT22;9322;50.932;5.318;2024-02-21T07:39:05;7.90;1.40
18392;DHT22;9322;50.932;5.318;2024-02-21T07:41:31;8.00;1.40
18392;DHT22;9322;50.932;5.318;2024-02-21T07:43:58;8.00;1.40
18392;DHT22;9322;50.932;5.318;2024-02-21T07:46:24;7.90;1.40
18392;DHT22;9322;50.932;5.318;2024-02-21T07:48:50;7.90;1.40
18392;DHT22;9322;50.932;5.318;2024-02-21T07:51:16;7.80;1.40
18392;DHT22;9322;50.932;5.318;2024-02-21T07:53:43;7.90;1.40
18392;DHT22;9322;50.932;5.318;2024-02-21T07:56:14;8.10;1.40
18392;DHT22;9322;50.932;5.318;2024-02-21T07:58:40;8.10;1.40
18392;DHT22;9322;50.932;5.318;2024-02-21T08:01:06;8.00;1.40
18392;DHT22;9322;50.932;5.318;2024-02-21T08:03:32;8.10;1.40
18392;DHT22;9322;50.932;5.318;2024-02-21T08:05:58;8.10;1.40
18392;DHT22;9322;50.932;5.318;2024-02-21T08:08:24;8.00;1.40
18392;DHT22;9322;50.932;5.318;2024-02-21T08:10:51;8.10;1.40
18392;DHT22;9322;50.932;5.318;2024-02-21T08:13:16;8.10;1.40
18392;DHT22;9322;50.932;5.318;2024-02-21T08:15:42;8.10;1.40
18392;DHT22;9322;50.932;5.318;2024-02-21T08:18:08;8.20;1.40
18392;DHT22;9322;50.932;5.318;2024-02-21T08:20:34;8.30;1.40
18392;DHT22;9322;50.932;5.318;2024-02-21T08:23:01;8.40;1.40
18392;DHT22;9322;50.932;5.318;2024-02-21T08:25:27;8.40;1.40
18392;DHT22;9322;50.932;5.318;2024-02-21T08:27:58;8.50;1.40
18392;DHT22;9322;50.932;5.318;2024-02-21T08:30:24;8.50;1.40
18392;DHT22;9322;50.932;5.318;2024-02-21T08:32:50;8.60;1.40
18392;DHT22;9322;50.932;5.318;2024-02-21T08:35:17;8.60;1.40
18392;DHT22;9322;50.932;5.318;2024-02-21T08:37:44;8.60;1.40
18392;DHT22;9322;50.932;5.318;2024-02-21T08:40:13;8.80;1.40
18392;DHT22;9322;50.932;5.318;2024-02-21T08:42:43;8.80;1.40
18392;DHT22;9322;50.932;5.318;2024-02-21T08:45:09;8.90;1.40
18392;DHT22;9322;50.932;5.318;2024-02-21T08:47:36;8.90;1.40
18392;DHT22;9322;50.932;5.318;2024-02-21T08:50:02;9.00;1.40
18392;DHT22;9322;50.932;5.318;2024-02-21T08:52:28;9.00;1.40
18392;DHT22;9322;50.932;5.318;2024-02-21T08:54:54;9.00;1.40
18392;DHT22;9322;50.932;5.318;2024-02-21T08:57:20;8.90;1.40
18392;DHT22;9322;50.932;5.318;2024-02-21T08:59:46;9.00;1.40
18392;DHT22;9322;50.932;5.318;2024-02-21T09:02:13;9.00;1.40
18392;DHT22;9322;50.932;5.318;2024-02-21T09:04:39;9.00;1.40
18392;DHT22;9322;50.932;5.318;2024-02-21T09:07:05;9.10;1.40
18392;DHT22;9322;50.932;5.318;2024-02-21T09:09:30;9.10;1.40
18392;DHT22;9322;50.932;5.318;2024-02-21T09:11:58;9.10;1.40
18392;DHT22;9322;50.932;5.318;2024-02-21T09:14:32;9.10;1.40
18392;DHT22;9322;50.932;5.318;2024-02-21T09:16:57;9.10;1.40
18392;DHT22;9322;50.932;5.318;2024-02-21T09:19:23;9.20;1.40
18392;DHT22;9322;50.932;5.318;2024-02-21T09:21:49;9.20;1.40
18392;DHT22;9322;50.932;5.318;2024-02-21T09:24:15;9.20;1.40
18392;DHT22;9322;50.932;5.318;2024-02-21T09:26:41;9.30;1.40
18392;DHT22;9322;50.932;5.318;2024-02-21T09:29:06;9.40;1.40
18392;DHT22;9322;50.932;5.318;2024-02-21T09:31:33;9.30;1.40
18392;DHT22;9322;50.932;5.318;2024-02-21T09:33:59;9.30;1.40
18392;DHT22;9322;50.932;5.318;2024-02-21T09:36:24;9.30;1.40
18392;DHT22;9322;50.932;5.318;2024-02-21T09:38:50;9.30;1.40
18392;DHT22;9322;50.932;5.318;2024-02-21T09:41:25;9.40;1.40
18392;DHT22;9322;50.932;5.318;2024-02-21T09:43:52;9.60;1.40
18392;DHT22;9322;50.932;5.318;2024-02-21T09:46:21;9.40;1.40
18392;DHT22;9322;50.932;5.318;2024-02-21T09:49:27;9.30;1.40
18392;DHT22;9322;50.932;5.318;2024-02-21T09:51:55;9.40;1.40
18392;DHT22;9322;50.932;5.318;2024-02-21T09:54:23;9.60;1.40
18392;DHT22;9322;50.932;5.318;2024-02-21T09:56:49;9.70;1.40
18392;DHT22;9322;50.932;5.318;2024-02-21T09:59:18;9.80;1.40
18392;DHT22;9322;50.932;5.318;2024-02-21T10:01:44;9.60;1.40
18392;DHT22;9322;50.932;5.318;2024-02-21T10:04:10;9.70;1.40
18392;DHT22;9322;50.932;5.318;2024-02-21T10:06:36;9.80;1.40
18392;DHT22;9322;50.932;5.318;2024-02-21T10:09:07;9.80;1.40
18392;DHT22;9322;50.932;5.318;2024-02-21T10:11:33;9.90;1.40
18392;DHT22;9322;50.932;5.318;2024-02-21T10:14:06;10.00;1.40
18392;DHT22;9322;50.932;5.318;2024-02-21T10:16:32;10.10;1.40
18392;DHT22;9322;50.932;5.318;2024-02-21T10:18:59;10.40;1.40
18392;DHT22;9322;50.932;5.318;2024-02-21T10:21:25;10.20;1.40
18392;DHT22;9322;50.932;5.318;2024-02-21T10:23:51;10.30;1.40
18392;DHT22;9322;50.932;5.318;2024-02-21T10:26:20;10.20;1.40
18392;DHT22;9322;50.932;5.318;2024-02-21T10:28:47;10.40;1.40
18392;DHT22;9322;50.932;5.318;2024-02-21T10:31:24;10.40;1.40
18392;DHT22;9322;50.932;5.318;2024-02-21T10:34:08;10.30;1.40
18392;DHT22;9322;50.932;5.318;2024-02-21T10:36:34;10.50;1.40
18392;DHT22;9322;50.932;5.318;2024-02-21T10:39:00;10.40;1.40
18392;DHT22;9322;50.932;5.318;2024-02-21T10:41:26;10.40;1.40
18392;DHT22;9322;50.932;5.318;2024-02-21T10:43:54;10.60;1.40
18392;DHT22;9322;50.932;5.318;2024-02-21T10:46:22;10.30;1.40
18392;DHT22;9322;50.932;5.318;2024-02-21T10:49:01;10.50;1.40
18392;DHT22;9322;50.932;5.318;2024-02-21T10:51:32;10.50;1.40
18392;DHT22;9322;50.932;5.318;2024-02-21T10:56:38;10.80;1.40
18392;DHT22;9322;50.932;5.318;2024-02-21T10:59:06;11.00;1.40
18392;DHT22;9322;50.932;5.318;2024-02-21T11:01:33;11.20;1.40
18392;DHT22;9322;50.932;5.318;2024-02-21T11:04:11;11.20;1.40
18392;DHT22;9322;50.932;5.318;2024-02-21T11:06:41;11.30;1.40
18392;DHT22;9322;50.932;5.318;2024-02-21T11:09:09;11.60;1.40
18392;DHT22;9322;50.932;5.318;2024-02-21T11:14:19;11.40;1.40
18392;DHT22;9322;50.932;5.318;2024-02-21T11:16:46;11.70;1.40
18392;DHT22;9322;50.932;5.318;2024-02-21T11:19:21;11.70;1.40
18392;DHT22;9322;50.932;5.318;2024-02-21T11:21:48;12.00;1.40
18392;DHT22;9322;50.932;5.318;2024-02-21T11:24:25;11.80;1.40
18392;DHT22;9322;50.932;5.318;2024-02-21T11:26:50;11.30;1.40
18392;DHT22;9322;50.932;5.318;2024-02-21T11:29:23;11.60;1.40
18392;DHT22;9322;50.932;5.318;2024-02-21T11:31:50;11.60;1.40
18392;DHT22;9322;50.932;5.318;2024-02-21T11:34:20;11.80;1.40
18392;DHT22;9322;50.932;5.318;2024-02-21T11:36:50;11.50;1.40
18392;DHT22;9322;50.932;5.318;2024-02-21T11:39:35;11.70;1.40
18392;DHT22;9322;50.932;5.318;2024-02-21T11:42:05;11.80;1.40
18392;DHT22;9322;50.932;5.318;2024-02-21T11:44:34;11.50;1.40
18392;DHT22;9322;50.932;5.318;2024-02-21T11:47:00;11.60;1.40
18392;DHT22;9322;50.932;5.318;2024-02-21T11:49:28;11.60;1.40
18392;DHT22;9322;50.932;5.318;2024-02-21T11:52:01;11.80;1.40
18392;DHT22;9322;50.932;5.318;2024-02-21T11:54:30;11.90;1.40
18392;DHT22;9322;50.932;5.318;2024-02-21T11:56:56;12.00;1.40
18392;DHT22;9322;50.932;5.318;2024-02-21T11:59:22;12.10;1.40
18392;DHT22;9322;50.932;5.318;2024-02-21T12:01:52;12.00;1.40
18392;DHT22;9322;50.932;5.318;2024-02-21T12:04:20;11.80;1.40
18392;DHT22;9322;50.932;5.318;2024-02-21T12:06:46;11.90;1.40
18392;DHT22;9322;50.932;5.318;2024-02-21T12:09:18;11.90;1.40
18392;DHT22;9322;50.932;5.318;2024-02-21T12:11:45;12.10;1.40
18392;DHT22;9322;50.932;5.318;2024-02-21T12:14:16;11.90;1.40
18392;DHT22;9322;50.932;5.318;2024-02-21T12:16:42;11.90;1.40
18392;DHT22;9322;50.932;5.318;2024-02-21T12:19:13;11.60;1.40
18392;DHT22;9322;50.932;5.318;2024-02-21T12:21:39;11.40;1.40
18392;DHT22;9322;50.932;5.318;2024-02-21T12:24:17;11.30;1.40
18392;DHT22;9322;50.932;5.318;2024-02-21T12:26:46;11.40;1.40
18392;DHT22;9322;50.932;5.318;2024-02-21T12:29:12;11.40;1.40
18392;DHT22;9322;50.932;5.318;2024-02-21T12:31:38;11.40;1.40
18392;DHT22;9322;50.932;5.318;2024-02-21T12:34:04;11.50;1.40
18392;DHT22;9322;50.932;5.318;2024-02-21T12:36:35;11.70;1.40
18392;DHT22;9322;50.932;5.318;2024-02-21T12:39:01;11.70;1.40
18392;DHT22;9322;50.932;5.318;2024-02-21T12:41:28;11.50;1.40
18392;DHT22;9322;50.932;5.318;2024-02-21T12:43:55;11.60;1.40
18392;DHT22;9322;50.932;5.318;2024-02-21T12:46:22;11.50;1.40
18392;DHT22;9322;50.932;5.318;2024-02-21T12:48:48;11.30;1.40
18392;DHT22;9322;50.932;5.318;2024-02-21T12:51:14;11.20;1.40
18392;DHT22;9322;50.932;5.318;2024-02-21T12:53:41;11.10;1.40
18392;DHT22;9322;50.932;5.318;2024-02-21T12:56:07;11.20;1.40
18392;DHT22;9322;50.932;5.318;2024-02-21T12:58:33;11.30;1.40
18392;DHT22;9322;50.932;5.318;2024-02-21T13:00:59;11.40;1.40
18392;DHT22;9322;50.932;5.318;2024-02-21T13:03:25;11.40;1.40
18392;DHT22;9322;50.932;5.318;2024-02-21T13:05:51;11.40;1.40
18392;DHT22;9322;50.932;5.318;2024-02-21T13:08:17;11.40;1.40
18392;DHT22;9322;50.932;5.318;2024-02-21T13:10:43;11.50;1.40
18392;DHT22;9322;50.932;5.318;2024-02-21T13:13:09;11.50;1.40
18392;DHT22;9322;50.932;5.318;2024-02-21T13:15:35;11.10;1.40
18392;DHT22;9322;50.932;5.318;2024-02-21T13:18:03;11.00;1.40
18392;DHT22;9322;50.932;5.318;2024-02-21T13:20:29;11.20;1.40
18392;DHT22;9322;50.932;5.318;2024-02-21T13:22:55;11.30;1.40
18392;DHT22;9322;50.932;5.318;2024-02-21T13:25:21;11.20;1.40
18392;DHT22;9322;50.932;5.318;2024-02-21T13:27:47;11.00;1.40
18392;DHT22;9322;50.932;5.318;2024-02-21T13:30:14;11.10;1.40
18392;DHT22;9322;50.932;5.318;2024-02-21T13:32:42;11.00;1.40
18392;DHT22;9322;50.932;5.318;2024-02-21T13:35:09;11.30;1.40
18392;DHT22;9322;50.932;5.318;2024-02-21T13:37:39;11.40;1.40
18392;DHT22;9322;50.932;5.318;2024-02-21T13:40:06;11.40;1.40
18392;DHT22;9322;50.932;5.318;2024-02-21T13:42:34;11.30;1.40
18392;DHT22;9322;50.932;5.318;2024-02-21T13:45:00;11.40;1.40
18392;DHT22;9322;50.932;5.318;2024-02-21T13:47:27;11.40;1.40
18392;DHT22;9322;50.932;5.318;2024-02-21T13:49:53;11.30;1.40
18392;DHT22;9322;50.932;5.318;2024-02-21T13:52:19;11.30;1.40
18392;DHT22;9322;50.932;5.318;2024-02-21T13:54:48;11.20;1.40
18392;DHT22;9322;50.932;5.318;2024-02-21T13:57:13;11.30;1.40
18392;DHT22;9322;50.932;5.318;2024-02-21T13:59:40;11.30;1.40
18392;DHT22;9322;50.932;5.318;2024-02-21T14:02:08;11.30;1.40
18392;DHT22;9322;50.932;5.318;2024-02-21T14:04:35;11.20;1.40
18392;DHT22;9322;50.932;5.318;2024-02-21T14:07:01;11.00;1.40
18392;DHT22;9322;50.932;5.318;2024-02-21T14:09:27;11.10;1.40
18392;DHT22;9322;50.932;5.318;2024-02-21T14:11:55;11.10;1.40
18392;DHT22;9322;50.932;5.318;2024-02-21T14:14:21;11.00;1.40
18392;DHT22;9322;50.932;5.318;2024-02-21T14:16:47;11.00;1.40
18392;DHT22;9322;50.932;5.318;2024-02-21T14:19:14;10.90;1.40
18392;DHT22;9322;50.932;5.318;2024-02-21T14:21:40;11.00;1.40
18392;DHT22;9322;50.932;5.318;2024-02-21T14:24:06;10.90;1.40
18392;DHT22;9322;50.932;5.318;2024-02-21T14:26:32;11.00;1.40
18392;DHT22;9322;50.932;5.318;2024-02-21T14:28:58;10.90;1.40
18392;DHT22;9322;50.932;5.318;2024-02-21T14:31:24;11.00;1.40
18392;DHT22;9322;50.932;5.318;2024-02-21T14:33:51;11.00;1.40
18392;DHT22;9322;50.932;5.318;2024-02-21T14:36:17;10.90;1.40
18392;DHT22;9322;50.932;5.318;2024-02-21T14:38:43;11.00;1.40
18392;DHT22;9322;50.932;5.318;2024-02-21T14:41:12;10.90;1.40
18392;DHT22;9322;50.932;5.318;2024-02-21T14:43:38;10.90;1.40
18392;DHT22;9322;50.932;5.318;2024-02-21T14:46:04;10.80;1.40
18392;DHT22;9322;50.932;5.318;2024-02-21T14:48:31;10.90;1.40
18392;DHT22;9322;50.932;5.318;2024-02-21T14:50:58;10.80;1.40
18392;DHT22;9322;50.932;5.318;2024-02-21T14:53:24;10.80;1.40
18392;DHT22;9322;50.932;5.318;2024-02-21T14:55:50;10.80;1.40
18392;DHT22;9322;50.932;5.318;2024-02-21T14:58:16;10.70;1.40
18392;DHT22;9322;50.932;5.318;2024-02-21T15:00:44;10.50;1.40
18392;DHT22;9322;50.932;5.318;2024-02-21T15:03:09;10.40;1.40
18392;DHT22;9322;50.932;5.318;2024-02-21T15:05:41;10.30;1.40
18392;DHT22;9322;50.932;5.318;2024-02-21T15:08:07;10.20;1.40
18392;DHT22;9322;50.932;5.318;2024-02-21T15:10:35;10.10;1.40
18392;DHT22;9322;50.932;5.318;2024-02-21T15:13:01;10.00;1.40
18392;DHT22;9322;50.932;5.318;2024-02-21T15:15:28;9.90;1.40
18392;DHT22;9322;50.932;5.318;2024-02-21T15:17:54;9.90;1.40
18392;DHT22;9322;50.932;5.318;2024-02-21T15:20:20;9.80;1.40
18392;DHT22;9322;50.932;5.318;2024-02-21T15:22:46;9.70;1.40
18392;DHT22;9322;50.932;5.318;2024-02-21T15:25:11;9.60;1.40
18392;DHT22;9322;50.932;5.318;2024-02-21T15:27:43;9.70;1.40
18392;DHT22;9322;50.932;5.318;2024-02-21T15:30:10;9.50;1.40
18392;DHT22;9322;50.932;5.318;2024-02-21T15:32:37;9.40;1.40
18392;DHT22;9322;50.932;5.318;2024-02-21T15:35:05;9.30;1.40
18392;DHT22;9322;50.932;5.318;2024-02-21T15:37:32;9.30;1.40
18392;DHT22;9322;50.932;5.318;2024-02-21T15:39:58;9.30;1.40
18392;DHT22;9322;50.932;5.318;2024-02-21T15:42:24;9.20;1.40
18392;DHT22;9322;50.932;5.318;2024-02-21T15:44:50;9.00;1.40
18392;DHT22;9322;50.932;5.318;2024-02-21T15:47:16;9.10;1.40
18392;DHT22;9322;50.932;5.318;2024-02-21T15:49:44;9.00;1.40
18392;DHT22;9322;50.932;5.318;2024-02-21T15:52:10;8.90;1.40
18392;DHT22;9322;50.932;5.318;2024-02-21T15:54:38;8.90;1.40
18392;DHT22;9322;50.932;5.318;2024-02-21T15:57:04;8.80;1.40
18392;DHT22;9322;50.932;5.318;2024-02-21T15:59:32;8.80;1.40
18392;DHT22;9322;50.932;5.318;2024-02-21T16:01:58;8.70;1.40
18392;DHT22;9322;50.932;5.318;2024-02-21T16:04:29;8.70;1.40
18392;DHT22;9322;50.932;5.318;2024-02-21T16:06:56;8.70;1.40
18392;DHT22;9322;50.932;5.318;2024-02-21T16:09:28;8.70;1.40
18392;DHT22;9322;50.932;5.318;2024-02-21T16:11:56;8.60;1.40
18392;DHT22;9322;50.932;5.318;2024-02-21T16:14:22;8.50;1.40
18392;DHT22;9322;50.932;5.318;2024-02-21T16:16:49;8.50;1.40
18392;DHT22;9322;50.932;5.318;2024-02-21T16:19:15;8.60;1.40